Forside
METAR-TAF:

METAR-TAF

Lufthavne :

Nouakchott, Mauretanien

Breddekreds: 18-18-36N, længdekreds: 015-58-11W, højde: 3 m

Aktuelle vejr

Denne rapport blev lavet for 38 minutter siden, kl. 17:30 UTC
Vind 14 kt fra vestnordvest
Temperatur 28°C
Fugtighed 62%
Tryk 1013 hPa
Sigt: 8000 m

METAR: GQNO 141730Z 29014KT 8000 NSC 28/20 Q1013 NOSIG

Tid: 18:08 (18:08 UTC)

Vejrudsigter

Denne rapport blev lavet for 1 time og 8 minutter siden, kl. 17:00 UTC
Foreløbig gælder fra 14 på 18 UTC til 15 på 24 UTC
Vind 10 kt fra vestnordvest
Sigt: 7000 m
Nogle få skyer i en højde af 1000 ft
Sandsynlighed 30% :
Midlertidig
fra 15 på 10 UTC til 15 på 17 UTC
Sigt: 4000 m
Spredte skyer i en højde af 3500 ft, Cumulonimbus.
tordenbyger, regn

TAF: GQNO 141700Z 1418/1524 30010KT 7000 FEW010 PROB30 TEMPO 1510/1517 4000 TSRA SCT035CB

Vejrobservationer og prognoser fra mere end 4000 lufthavne (METAR og TAF).

De gule og røde prikker repræsenterer de meteorologiske stationer.

Flyt musen over at se navnet på stationen.

Så klik over at se vejr observationer og prognoser.

At skifte det kort: Klik på de grønne knapper med et sort kors for at zoome ind; på den grønne knap med en bindestreg for at zoome ud; eller på de grønne pile for tilstødende kort.


METAR-TAF: